MUC weather

Munich International Airport
Munich, Bavaria, Germany

Public forecast

Using degrees Celsius for public forecast. Weather courtesy of forecast.io.

METAR (pilot weather report)

Retrieved 2017/05/28 23:20 UTC (33 minutes ago):

EDDM 282320Z VRB01KT CAVOK 12/10 Q1019 NOSIG

TAF (pilot weather forecast)

Retrieved 2017/05/28 18:27 UTC (5 hours ago):

TAF EDDM 281700Z 2818/2924 VRB02KT CAVOK BECMG 2908/2910 06005KT BECMG 2917/2919 VRB02KT